Time;durP1;ratioP1;P1;durP2;ratioP2;P2;SDS_P1;SDS_P2;PMS_P1;PMS_P2;Temp;Humidity;BMP_temperature;BMP_pressure;BME280_temperature;BME280_humidity;BME280_pressure;Samples;Min_cycle;Max_cycle;Signal;HPM_P1;HPM_P2
2021/08/28 00:02:07;;;;;;;0.50;0.50;;;;;;;13.99;60.00;101324.38;4911422;29;20055;-78
2021/08/28 00:04:34;;;;;;;0.65;0.65;;;;;;;13.89;60.57;101314.19;4910653;29;20040;-77
2021/08/28 00:07:00;;;;;;;1.55;0.80;;;;;;;13.95;60.64;101327.69;4913143;29;20059;-76
2021/08/28 00:09:28;;;;;;;1.00;1.00;;;;;;;14.01;60.53;101327.72;4926687;29;20027;-76
2021/08/28 00:11:53;;;;;;;0.93;0.88;;;;;;;13.96;60.76;101321.09;4927038;29;20032;-77
2021/08/28 00:14:20;;;;;;;1.02;0.93;;;;;;;14.03;60.56;101323.63;4928452;29;20039;-76
2021/08/28 00:16:46;;;;;;;0.88;0.73;;;;;;;14.04;61.03;101328.00;4925351;29;20031;-75
2021/08/28 00:19:14;;;;;;;1.35;0.93;;;;;;;14.02;61.06;101329.34;4929691;29;20024;-77
2021/08/28 00:21:40;;;;;;;0.40;0.40;;;;;;;13.91;60.81;101323.78;4912019;29;20095;-76
2021/08/28 00:24:06;;;;;;;0.73;0.73;;;;;;;13.90;60.91;101321.31;4910370;29;20056;-77
2021/08/28 00:26:33;;;;;;;0.68;0.68;;;;;;;13.81;60.99;101317.44;4925866;29;20103;-78
2021/08/28 00:28:59;;;;;;;0.60;0.60;;;;;;;13.84;61.44;101322.38;4925793;29;20028;-80
2021/08/28 00:31:35;;;;;;;1.75;1.10;;;;;;;13.83;61.53;101320.72;4911979;29;20509;-81
2021/08/28 00:34:00;;;;;;;1.23;1.13;;;;;;;13.76;61.74;101304.47;4908560;29;20028;-81
2021/08/28 00:36:40;;;;;;;;;;;;;;;;;;;;;
2021/08/28 00:39:06;;;;;;;0.95;0.85;;;;;;;13.87;61.50;101327.34;4929115;29;20115;-80
2021/08/28 00:41:33;;;;;;;1.10;1.10;;;;;;;13.78;61.77;101307.78;4922585;28;20028;-79
2021/08/28 00:44:06;;;;;;;1.33;1.00;;;;;;;13.84;62.23;101327.88;4923962;29;20020;-77
2021/08/28 00:46:41;;;;;;;1.00;1.00;;;;;;;13.71;61.75;101308.03;4918152;29;20087;-80
2021/08/28 00:49:18;;;;;;;;;;;;;;;;;;;;;
2021/08/28 00:51:47;;;;;;;0.98;0.98;;;;;;;13.66;61.98;101310.75;4922500;29;20551;-78
2021/08/28 00:54:43;;;;;;;0.80;0.80;;;;;;;13.74;62.48;101324.00;4913778;29;20032;-81
2021/08/28 00:57:09;;;;;;;0.68;0.60;;;;;;;13.68;62.27;101322.31;4906357;29;20095;-79
2021/08/28 00:59:37;;;;;;;0.63;0.60;;;;;;;13.64;62.45;101323.06;4891513;29;20123;-80
2021/08/28 01:02:06;;;;;;;0.70;0.70;;;;;;;13.54;62.33;101312.88;4897352;29;20135;-79
2021/08/28 01:04:47;;;;;;;0.90;0.90;;;;;;;13.57;62.54;101318.66;4923359;29;20024;-74
2021/08/28 01:07:27;;;;;;;1.25;1.13;;;;;;;13.57;62.02;101315.09;4923521;29;20043;-78
2021/08/28 01:10:14;;;;;;;3.58;0.93;;;;;;;13.64;62.13;101329.44;4908283;29;20040;-81
2021/08/28 01:12:53;;;;;;;7.60;1.40;;;;;;;13.59;62.63;101329.38;4916771;29;20061;-78
2021/08/28 01:15:30;;;;;;;1.08;0.98;;;;;;;13.54;62.08;101323.88;4922992;29;20083;-80
2021/08/28 01:17:58;;;;;;;1.25;1.25;;;;;;;13.52;62.61;101334.28;4902235;29;20036;-77
2021/08/28 01:24:47;;;;;;;2.95;1.08;;;;;;;13.46;62.31;101332.59;4829946;29;20171;-78
2021/08/28 01:27:41;;;;;;;3.05;0.98;;;;;;;13.44;62.74;101341.91;4814352;29;20072;-78
2021/08/28 01:30:54;;;;;;;;;;;;;;;;;;;;;
2021/08/28 01:38:10;;;;;;;2.25;1.52;;;;;;;13.20;63.49;101318.59;4784732;29;20102;-82
2021/08/28 01:41:04;;;;;;;;;;;;;;;;;;;;;
2021/08/28 01:43:31;;;;;;;1.65;1.55;;;;;;;13.18;63.60;101337.28;4838530;29;20129;-79
2021/08/28 01:46:14;;;;;;;;;;;;;;;;;;;;;
2021/08/28 01:48:41;;;;;;;0.80;0.80;;;;;;;13.19;64.21;101338.94;4926076;29;20083;-77
2021/08/28 01:51:06;;;;;;;1.17;1.10;;;;;;;13.02;63.43;101315.16;4924457;29;20047;-77
2021/08/28 01:53:39;;;;;;;1.73;1.02;;;;;;;13.17;64.26;101341.09;4891338;29;20037;-79
2021/08/28 01:56:17;;;;;;;2.35;1.35;;;;;;;13.15;64.59;101346.84;4910102;29;20056;-81
2021/08/28 01:59:01;;;;;;;1.58;1.27;;;;;;;13.11;64.19;101345.72;4916612;29;20024;-79
2021/08/28 02:01:28;;;;;;;1.25;1.15;;;;;;;13.03;64.02;101332.47;4908092;29;20043;-78
2021/08/28 02:04:01;;;;;;;1.27;1.27;;;;;;;13.03;64.87;101340.72;4911586;29;20097;-79
2021/08/28 02:06:36;;;;;;;1.40;1.30;;;;;;;13.01;64.53;101342.88;4908753;29;20040;-79
2021/08/28 02:13:09;;;;;;;;;;;;;;;;;;;;;
2021/08/28 02:21:44;;;;;;;0.77;0.77;;;;;;;12.81;64.80;101349.00;5227680;23;20141;-78
2021/08/28 02:24:29;;;;;;;0.85;0.85;;;;;;;12.68;64.78;101323.63;4940849;28;20821;-80
2021/08/28 02:27:14;;;;;;;1.23;1.17;;;;;;;12.79;65.13;101340.19;4901829;29;20021;-72
2021/08/28 02:30:04;;;;;;;1.17;1.13;;;;;;;12.79;64.96;101353.91;4924583;29;20036;-73
2021/08/28 02:32:33;;;;;;;1.20;0.88;;;;;;;12.76;65.37;101352.50;4925810;29;20035;-79
2021/08/28 02:35:01;;;;;;;1.73;1.10;;;;;;;12.66;65.51;101336.78;4904571;29;20031;-79
2021/08/28 02:37:29;;;;;;;0.80;0.80;;;;;;;12.75;65.31;101351.69;4903035;29;20072;-79
2021/08/28 02:40:06;;;;;;;5.80;1.25;;;;;;;12.75;65.21;101345.38;4909194;29;20024;-79
2021/08/28 02:42:37;;;;;;;0.90;0.90;;;;;;;12.70;65.45;101337.06;4922526;29;20028;-79
2021/08/28 02:45:26;;;;;;;1.40;1.38;;;;;;;12.66;65.50;101331.28;4910093;29;20051;-79
2021/08/28 02:47:52;;;;;;;2.15;0.98;;;;;;;12.59;65.86;101316.94;4907996;29;20138;-79
2021/08/28 02:50:25;;;;;;;0.90;0.90;;;;;;;12.75;65.47;101345.38;4923228;29;20012;-78
2021/08/28 02:53:02;;;;;;;1.25;1.15;;;;;;;12.68;65.56;101337.34;4927034;29;20060;-79
2021/08/28 02:55:51;;;;;;;;;;;;;;;;;;;;;
2021/08/28 02:58:19;;;;;;;1.15;1.13;;;;;;;12.69;65.95;101341.75;4930919;29;20115;-77
2021/08/28 03:00:45;;;;;;;0.82;0.82;;;;;;;12.72;65.47;101343.97;4909295;29;20012;-79
2021/08/28 03:03:17;;;;;;;1.65;0.40;;;;;;;12.69;65.64;101335.44;4906994;29;20040;-78
2021/08/28 03:05:46;;;;;;;0.70;0.60;;;;;;;12.70;65.57;101337.91;4908606;29;20024;-79
2021/08/28 03:08:17;;;;;;;1.77;0.50;;;;;;;12.68;65.32;101339.25;4907524;29;20084;-78
2021/08/28 03:10:51;;;;;;;0.55;0.55;;;;;;;12.67;65.52;101338.41;4924392;29;20060;-78
2021/08/28 03:13:20;;;;;;;1.08;1.08;;;;;;;12.60;66.12;101337.81;4903466;29;20012;-79
2021/08/28 03:15:48;;;;;;;1.13;0.77;;;;;;;12.61;65.69;101336.72;4923069;29;20084;-78
2021/08/28 03:18:17;;;;;;;1.77;0.60;;;;;;;12.56;65.92;101339.41;4907153;29;20024;-77
2021/08/28 03:20:46;;;;;;;1.48;0.88;;;;;;;12.51;65.70;101322.88;4916568;29;20112;-79
2021/08/28 03:23:15;;;;;;;0.82;0.82;;;;;;;12.56;65.80;101339.41;4909016;29;20503;-80
2021/08/28 03:25:46;;;;;;;4.13;0.93;;;;;;;12.53;65.75;101337.19;4902586;29;20032;-79
2021/08/28 03:28:16;;;;;;;0.47;0.47;;;;;;;12.46;66.29;101336.56;4921832;29;20036;-80
2021/08/28 03:30:46;;;;;;;0.65;0.65;;;;;;;12.48;65.76;101346.16;4906427;29;20035;-80
2021/08/28 03:33:15;;;;;;;0.65;0.50;;;;;;;12.43;65.80;101351.59;4908858;29;20463;-81
2021/08/28 03:35:46;;;;;;;0.70;0.70;;;;;;;12.34;65.92;101334.75;4913521;29;20047;-79
2021/08/28 03:38:12;;;;;;;0.57;0.57;;;;;;;12.32;66.15;101336.91;4909738;29;20024;-80
2021/08/28 03:40:41;;;;;;;1.30;1.20;;;;;;;12.20;66.38;101323.34;4911476;29;20052;-80
2021/08/28 03:43:22;;;;;;;;;;;;;;;;;;;;;
2021/08/28 03:45:49;;;;;;;0.82;0.82;;;;;;;12.29;66.47;101331.94;4924638;29;20526;-79
2021/08/28 03:48:16;;;;;;;0.85;0.85;;;;;;;12.33;66.42;101338.59;4919668;29;20107;-78
2021/08/28 03:51:02;;;;;;;0.77;0.77;;;;;;;12.34;66.05;101334.75;4909217;29;20016;-78
2021/08/28 03:53:27;;;;;;;0.60;0.60;;;;;;;12.33;66.13;101333.09;4887744;29;20036;-79
2021/08/28 03:56:00;;;;;;;1.10;0.50;;;;;;;12.35;66.19;101339.16;4922505;29;20078;-79
2021/08/28 03:58:29;;;;;;;0.70;0.68;;;;;;;12.38;66.22;101346.03;4924698;29;20055;-78
2021/08/28 04:00:55;;;;;;;0.52;0.40;;;;;;;12.26;66.53;101332.47;4921805;29;20036;-78
2021/08/28 04:03:20;;;;;;;0.55;0.55;;;;;;;12.21;66.76;101329.66;4892515;29;20042;-78
2021/08/28 04:05:48;;;;;;;0.73;0.73;;;;;;;12.23;66.28;101333.78;4891904;29;20044;-78
2021/08/28 04:08:16;;;;;;;0.50;0.50;;;;;;;12.17;66.46;101328.50;4907316;29;20126;-79
2021/08/28 04:10:42;;;;;;;0.57;0.57;;;;;;;12.19;66.34;101337.31;4886743;29;20043;-82
2021/08/28 04:13:07;;;;;;;0.70;0.70;;;;;;;12.14;66.46;101334.50;4900195;29;20052;-79
2021/08/28 04:15:36;;;;;;;0.85;0.85;;;;;;;12.15;66.87;101341.63;4909632;29;20016;-79
2021/08/28 04:18:01;;;;;;;2.13;0.70;;;;;;;12.10;66.59;101338.84;4907742;29;20828;-77
2021/08/28 04:20:34;;;;;;;2.17;0.93;;;;;;;12.07;66.91;101339.34;4924888;29;20056;-78
2021/08/28 04:22:59;;;;;;;1.33;0.55;;;;;;;12.00;67.11;101331.28;4896412;29;20035;-80
2021/08/28 04:25:25;;;;;;;0.68;0.68;;;;;;;11.98;67.53;101330.72;4922244;29;20036;-80
2021/08/28 04:27:52;;;;;;;0.95;0.95;;;;;;;11.97;67.37;101324.44;4899830;29;20020;-80
2021/08/28 04:30:18;;;;;;;0.80;0.80;;;;;;;12.04;67.09;101332.44;4914209;29;20031;-78
2021/08/28 04:32:52;;;;;;;5.07;0.80;;;;;;;12.07;67.45;101342.91;4919531;29;20028;-79
2021/08/28 04:35:34;;;;;;;1.27;1.20;;;;;;;12.00;67.19;101332.16;4890929;29;20024;-80
2021/08/28 04:38:05;;;;;;;1.20;1.10;;;;;;;11.93;67.97;101323.28;4910507;29;20032;-78
2021/08/28 04:40:42;;;;;;;0.88;0.88;;;;;;;12.03;68.34;101339.84;4928450;29;20028;-78
2021/08/28 04:43:15;;;;;;;6.72;1.70;;;;;;;12.17;68.33;101344.97;4912527;29;20023;-80
2021/08/28 04:45:40;;;;;;;6.13;1.90;;;;;;;12.27;68.54;101345.09;4894312;29;20088;-80
2021/08/28 04:48:13;;;;;;;3.22;1.65;;;;;;;12.50;68.46;101365.09;4926389;29;20032;-79
2021/08/28 04:50:41;;;;;;;1.75;1.65;;;;;;;12.51;68.38;101342.09;4904738;29;20020;-80
2021/08/28 04:53:07;;;;;;;3.40;1.83;;;;;;;12.74;68.48;101360.19;4910168;29;20058;-79
2021/08/28 04:55:32;;;;;;;1.88;1.50;;;;;;;12.77;68.25;101354.16;4895111;29;20032;-80
2021/08/28 04:58:06;;;;;;;1.25;1.17;;;;;;;12.92;68.49;101367.22;4925745;29;20020;-81
2021/08/28 05:00:42;;;;;;;1.20;1.10;;;;;;;12.99;68.52;101362.34;4895920;29;20338;-81
2021/08/28 05:03:25;;;;;;;;;;;;;;;;;;;;;
2021/08/28 05:05:54;;;;;;;4.28;1.60;;;;;;;13.06;68.13;101351.16;4923113;29;20542;-80
2021/08/28 05:08:21;;;;;;;3.20;1.92;;;;;;;13.24;68.28;101364.53;4890474;29;20388;-80
2021/08/28 05:10:53;;;;;;;2.08;1.10;;;;;;;13.20;67.96;101346.06;4895783;29;20035;-80
2021/08/28 05:13:31;;;;;;;;;;;;;;;;;;;;;
2021/08/28 05:16:02;;;;;;;2.60;0.98;;;;;;;13.44;68.33;101361.13;4923942;29;20095;-78
2021/08/28 05:18:28;;;;;;;3.38;2.15;;;;;;;13.39;68.05;101344.63;4909298;29;20103;-78
2021/08/28 05:20:59;;;;;;;5.95;1.80;;;;;;;13.62;68.16;101372.81;4906559;29;20075;-78
2021/08/28 05:23:24;;;;;;;10.82;1.95;;;;;;;13.68;68.40;101382.78;4910104;29;20046;-78
2021/08/28 05:26:12;;;;;;;2.78;1.60;;;;;;;13.71;67.49;101374.00;4889223;29;20049;-79
2021/08/28 05:29:09;;;;;;;6.57;1.67;;;;;;;13.68;67.85;101363.53;4939447;29;20088;-80
2021/08/28 05:31:48;;;;;;;;;;;;;;;;;;;;;
2021/08/28 05:34:57;;;;;;;2.42;2.03;;;;;;;13.82;68.04;101368.56;4932267;29;20059;-79
2021/08/28 05:38:14;;;;;;;;;;;;;;;;;;;;;
2021/08/28 05:51:19;;;;;;;5.25;1.50;;;;;;;14.25;67.26;101396.84;4866299;29;20057;-77
2021/08/28 06:01:03;;;;;;;3.17;2.47;;;;;;;14.40;66.91;101390.63;4806241;29;20125;-80
2021/08/28 06:03:57;;;;;;;1.55;1.23;;;;;;;14.47;66.75;101396.69;4801355;29;20061;-79
2021/08/28 06:09:44;;;;;;;1.42;1.33;;;;;;;14.55;66.71;101411.88;4795624;29;20510;-80
2021/08/28 06:15:34;;;;;;;1.95;1.35;;;;;;;14.68;66.59;101414.16;4758115;30;20043;-80
2021/08/28 06:18:29;;;;;;;1.80;1.48;;;;;;;14.68;67.03;101403.16;4798873;29;20039;-79
2021/08/28 06:21:22;;;;;;;0.90;0.85;;;;;;;14.73;66.63;101400.41;4795297;29;20168;-77
2021/08/28 06:34:09;;;;;;;0.73;0.70;;;;;;;15.19;66.08;101430.81;4804996;29;20038;-77
2021/08/28 06:41:10;;;;;;;;;;;;;;;;;;;;;
2021/08/28 06:44:37;;;;;;;1.10;1.00;;;;;;;15.53;65.61;101441.31;4815224;29;20138;-80
2021/08/28 06:47:18;;;;;;;;;;;;;;;;;;;;;
2021/08/28 06:54:02;;;;;;;1.83;0.77;;;;;;;15.78;65.03;101431.44;4726426;30;20067;-74
2021/08/28 07:10:50;;;;;;;;;;;;;;;;;;;;;
2021/08/28 07:13:42;;;;;;;;;;;;;;;16.33;64.29;101442.66;4642280;30;20047;-75
2021/08/28 07:20:37;;;;;;;1.05;0.60;;;;;;;16.40;64.05;101420.31;4623273;31;20069;-82
2021/08/28 07:27:34;;;;;;;;;;;;;;;;;;;;;
2021/08/28 07:40:24;;;;;;;1.30;1.17;;;;;;;17.14;62.56;101439.03;4598242;31;20127;-78
2021/08/28 07:42:59;;;;;;;1.55;0.70;;;;;;;17.31;61.84;101456.06;4615391;31;20052;-78
2021/08/28 07:45:27;;;;;;;1.73;0.75;;;;;;;17.30;61.84;101443.34;4816176;29;20387;-77
2021/08/28 07:55:46;;;;;;;;;;;;;;;;;;;;;
2021/08/28 07:59:19;;;;;;;0.85;0.85;;;;;;;17.44;60.76;101441.59;4833619;29;20580;-77
2021/08/28 08:05:56;;;;;;;2.30;0.95;;;;;;;17.73;60.47;101473.19;4793632;29;20047;-77
2021/08/28 08:16:37;;;;;;;0.60;0.60;;;;;;;18.16;60.76;101470.63;4639604;30;20699;-73
2021/08/28 08:29:35;;;;;;;;;;;;;;;;;;;;;
2021/08/28 08:32:32;;;;;;;;;;;;;;;;;;;;;
2021/08/28 08:35:15;;;;;;;;;;;;;;;;;;;;;
2021/08/28 08:38:29;;;;;;;;;;;;;;;;;;;;;
2021/08/28 08:41:15;;;;;;;;;;;;;;;;;;;;;
2021/08/28 08:43:43;;;;;;;2.35;1.13;;;;;;;20.13;55.28;101466.84;4835991;29;20117;-73
2021/08/28 08:47:14;;;;;;;;;;;;;;;;;;;;;
2021/08/28 08:49:46;;;;;;;1.08;0.98;;;;;;;20.44;54.87;101464.28;4827853;29;20535;-74
2021/08/28 08:55:25;;;;;;;3.78;0.98;;;;;;;20.68;54.20;101466.91;4850091;29;20063;-74
2021/08/28 08:58:06;;;;;;;0.70;0.70;;;;;;;21.25;54.11;101465.69;4904736;29;20439;-74
2021/08/28 09:00:34;;;;;;;1.60;1.10;;;;;;;22.07;52.47;101471.25;4886929;29;20487;-74
2021/08/28 09:06:14;;;;;;;;;;;;;;;;;;;;;
2021/08/28 09:12:42;;;;;;;1.85;1.33;;;;;;;23.09;47.96;101475.91;4890479;29;20144;-74
2021/08/28 09:15:47;;;;;;;2.33;1.65;;;;;;;22.80;48.07;101485.66;4896957;29;20040;-74
2021/08/28 09:18:25;;;;;;;;;;;;;;;;;;;;;
2021/08/28 09:21:13;;;;;;;1.40;1.08;;;;;;;23.17;49.56;101483.50;4904006;29;20123;-73
2021/08/28 09:23:49;;;;;;;0.80;0.68;;;;;;;23.85;47.72;101485.78;4898586;29;20119;-74
2021/08/28 09:26:43;;;;;;;;;;;;;;;24.30;46.62;101478.97;4925061;29;20039;-73
2021/08/28 09:37:12;;;;;;;;;;;;;;;;;;;;;
2021/08/28 09:47:20;;;;;;;2.58;0.45;;;;;;;25.47;45.64;101469.25;4767274;30;20047;-74
2021/08/28 09:50:13;;;;;;;0.70;0.50;;;;;;;25.71;44.64;101470.53;4755040;29;20042;-73
2021/08/28 09:53:09;;;;;;;2.75;0.63;;;;;;;25.96;43.50;101463.84;4807265;29;20617;-76
2021/08/28 09:55:46;;;;;;;1.75;0.93;;;;;;;26.36;42.57;101481.25;4799562;29;20039;-75
2021/08/28 09:58:25;;;;;;;1.20;1.10;;;;;;;26.26;41.09;101466.50;4808494;29;20054;-76
2021/08/28 10:01:22;;;;;;;2.97;0.80;;;;;;;26.13;41.12;101474.06;4815915;29;20035;-74
2021/08/28 10:04:15;;;;;;;1.88;0.63;;;;;;;26.42;42.07;101491.84;4801695;29;20023;-74
2021/08/28 10:06:49;;;;;;;1.55;1.00;;;;;;;26.42;40.60;101480.66;4923147;29;20402;-74
2021/08/28 10:09:17;;;;;;;0.80;0.80;;;;;;;26.30;40.35;101484.25;4905980;29;20043;-76
2021/08/28 10:11:46;;;;;;;1.95;0.93;;;;;;;26.09;40.14;101487.16;4922343;29;20036;-76
2021/08/28 10:14:18;;;;;;;1.30;0.50;;;;;;;25.90;40.17;101486.81;4923369;29;20028;-75
2021/08/28 10:16:45;;;;;;;1.25;0.85;;;;;;;25.95;40.03;101490.22;4923684;29;20020;-75
2021/08/28 10:19:15;;;;;;;1.50;0.90;;;;;;;26.33;39.88;101487.50;4889590;29;20103;-76
2021/08/28 10:21:46;;;;;;;0.65;0.60;;;;;;;26.41;39.13;101489.41;4920741;29;20060;-74
2021/08/28 10:24:14;;;;;;;3.88;0.93;;;;;;;26.63;39.25;101497.38;4923137;29;20036;-75
2021/08/28 10:26:44;;;;;;;1.17;0.70;;;;;;;27.07;38.82;101487.53;4922835;29;20055;-76
2021/08/28 10:29:13;;;;;;;1.10;1.10;;;;;;;27.79;37.82;101495.31;4904353;29;20024;-77
2021/08/28 10:31:51;;;;;;;1.20;1.08;;;;;;;28.31;36.64;101496.31;4922832;29;20039;-77
2021/08/28 10:34:18;;;;;;;1.17;1.08;;;;;;;28.44;35.88;101491.44;4875294;29;20036;-78
2021/08/28 10:36:44;;;;;;;1.23;0.80;;;;;;;28.18;35.23;101495.59;4890513;29;20039;-77
2021/08/28 10:39:10;;;;;;;1.70;1.00;;;;;;;27.89;35.28;101494.81;4872909;29;20035;-76
2021/08/28 10:41:38;;;;;;;0.98;0.85;;;;;;;27.79;35.72;101506.56;4897745;29;20577;-77
2021/08/28 10:44:04;;;;;;;1.27;1.15;;;;;;;27.72;35.13;101506.34;4897496;29;20067;-76
2021/08/28 10:46:31;;;;;;;1.40;0.93;;;;;;;27.54;34.93;101503.84;4889718;29;20134;-77
2021/08/28 10:49:00;;;;;;;0.80;0.80;;;;;;;27.19;35.74;101501.56;4896806;29;20460;-76
2021/08/28 10:51:31;;;;;;;0.73;0.70;;;;;;;27.14;36.11;101499.81;4897491;29;20060;-78
2021/08/28 10:54:06;;;;;;;0.82;0.82;;;;;;;27.19;36.26;101490.34;4907986;29;20029;-77
2021/08/28 10:56:45;;;;;;;0.60;0.60;;;;;;;27.28;35.80;101493.81;4902665;29;20483;-76
2021/08/28 10:59:16;;;;;;;1.02;0.85;;;;;;;27.37;36.11;101492.91;4926198;29;20055;-77
2021/08/28 11:02:06;;;;;;;0.82;0.70;;;;;;;27.94;36.32;101493.72;4907604;29;20036;-77
2021/08/28 11:04:41;;;;;;;2.00;0.63;;;;;;;29.28;36.52;101495.88;4919720;29;20119;-77
2021/08/28 11:07:23;;;;;;;0.65;0.65;;;;;;;31.60;35.22;101496.69;4897105;29;20119;-78
2021/08/28 11:10:11;;;;;;;0.90;0.90;;;;;;;32.31;32.33;101487.31;4902542;29;20115;-76
2021/08/28 11:12:58;;;;;;;0.50;0.50;;;;;;;32.29;31.18;101495.41;4902995;29;20028;-77
2021/08/28 11:15:27;;;;;;;0.43;0.40;;;;;;;31.66;31.05;101477.38;4906200;29;20028;-77
2021/08/28 11:17:56;;;;;;;1.52;0.93;;;;;;;30.88;30.54;101477.88;4917215;29;20043;-76
2021/08/28 11:20:26;;;;;;;0.80;0.60;;;;;;;29.89;31.20;101480.25;4891122;29;20056;-75
2021/08/28 11:22:53;;;;;;;1.13;0.82;;;;;;;28.83;32.05;101478.34;4886888;29;20055;-76
2021/08/28 11:25:24;;;;;;;0.77;0.77;;;;;;;27.86;32.85;101475.81;4919098;29;20127;-74
2021/08/28 11:27:55;;;;;;;0.52;0.52;;;;;;;27.08;34.05;101487.19;4904115;29;20046;-75
2021/08/28 11:30:45;;;;;;;3.40;0.88;;;;;;;26.43;35.05;101478.66;4922063;29;20067;-75
2021/08/28 11:33:26;;;;;;;2.47;0.77;;;;;;;26.00;35.27;101483.59;4907115;29;20032;-75
2021/08/28 11:35:58;;;;;;;2.58;0.75;;;;;;;25.61;35.90;101475.41;4899969;29;20278;-75
2021/08/28 11:38:50;;;;;;;1.00;0.60;;;;;;;25.29;37.16;101478.91;4899136;29;20057;-74
2021/08/28 11:41:24;;;;;;;1.58;0.80;;;;;;;25.87;39.15;101471.50;4914356;29;20091;-75
2021/08/28 11:43:51;;;;;;;0.60;0.60;;;;;;;27.72;38.00;101472.63;4912667;29;20114;-76
2021/08/28 11:46:28;;;;;;;0.43;0.38;;;;;;;28.89;36.06;101473.25;4907115;29;20106;-75
2021/08/28 11:48:55;;;;;;;2.58;0.77;;;;;;;29.21;34.17;101468.34;4902409;29;20104;-75
2021/08/28 11:51:25;;;;;;;0.70;0.70;;;;;;;29.01;33.01;101475.13;4908119;29;20039;-75
2021/08/28 11:53:58;;;;;;;0.73;0.60;;;;;;;28.67;33.44;101475.56;4918565;29;20036;-75
2021/08/28 11:56:29;;;;;;;0.50;0.50;;;;;;;28.52;34.11;101465.13;4905890;29;20024;-74
2021/08/28 11:59:02;;;;;;;0.50;0.50;;;;;;;29.98;34.11;101465.91;4904873;29;20028;-76
2021/08/28 12:01:42;;;;;;;2.90;0.60;;;;;;;30.73;32.96;101472.03;4909958;29;20028;-76
2021/08/28 12:04:13;;;;;;;0.40;0.40;;;;;;;30.62;32.38;101473.84;4920337;29;20087;-76
2021/08/28 12:06:41;;;;;;;0.57;0.43;;;;;;;30.18;31.15;101474.31;4912564;29;20036;-76
2021/08/28 12:09:11;;;;;;;0.65;0.60;;;;;;;29.81;31.96;101463.53;4902551;29;20032;-76
2021/08/28 12:11:44;;;;;;;1.55;0.30;;;;;;;29.39;31.89;101462.31;4902159;29;20128;-75
2021/08/28 12:14:11;;;;;;;1.08;0.98;;;;;;;28.81;31.66;101460.19;4903465;29;20127;-74
2021/08/28 12:16:39;;;;;;;0.70;0.63;;;;;;;28.25;32.49;101462.03;4927722;29;20046;-76
2021/08/28 12:19:08;;;;;;;0.40;0.40;;;;;;;27.73;32.66;101452.63;4909281;29;20047;-77
2021/08/28 12:21:48;;;;;;;0.75;0.75;;;;;;;27.34;33.43;101455.91;4920100;29;20063;-76
2021/08/28 12:24:50;;;;;;;1.10;0.85;;;;;;;27.23;34.17;101449.13;4903444;29;20064;-77
2021/08/28 12:27:19;;;;;;;1.27;0.73;;;;;;;27.29;34.30;101456.16;4921670;29;20060;-77
2021/08/28 12:29:51;;;;;;;0.75;0.70;;;;;;;27.54;33.86;101455.25;4923853;29;20031;-77
2021/08/28 12:32:25;;;;;;;1.15;1.02;;;;;;;27.58;33.40;101451.38;4924174;29;20055;-77
2021/08/28 12:34:56;;;;;;;3.95;1.23;;;;;;;27.73;33.39;101457.41;4920190;29;20028;-75
2021/08/28 12:37:25;;;;;;;1.10;1.00;;;;;;;27.74;32.88;101464.66;4906739;29;20044;-74
2021/08/28 12:39:55;;;;;;;1.40;1.23;;;;;;;27.58;32.93;101456.19;4924994;29;20032;-78
2021/08/28 12:42:43;;;;;;;0.98;0.60;;;;;;;27.49;32.92;101453.53;4897865;29;20131;-76
2021/08/28 12:45:11;;;;;;;1.10;1.00;;;;;;;28.62;34.27;101447.72;4906324;29;20031;-75
2021/08/28 12:47:45;;;;;;;0.70;0.68;;;;;;;29.65;32.50;101443.91;4921584;29;20051;-76
2021/08/28 12:50:38;;;;;;;0.70;0.70;;;;;;;30.31;31.98;101447.53;4904513;29;20028;-75
2021/08/28 12:53:06;;;;;;;0.52;0.52;;;;;;;30.29;30.99;101444.28;4908817;29;20048;-76
2021/08/28 12:55:33;;;;;;;1.67;0.90;;;;;;;30.01;29.53;101442.59;4885890;29;20036;-76
2021/08/28 12:58:04;;;;;;;1.25;0.60;;;;;;;29.62;30.11;101444.66;4912786;29;20056;-76
2021/08/28 13:00:38;;;;;;;0.60;0.50;;;;;;;29.28;30.67;101445.19;4903233;29;20039;-77
2021/08/28 13:03:24;;;;;;;4.30;0.60;;;;;;;29.13;30.33;101443.22;4891394;29;20064;-76
2021/08/28 13:06:22;;;;;;;0.60;0.60;;;;;;;29.21;30.14;101442.19;4901772;29;20111;-78
2021/08/28 13:08:51;;;;;;;0.60;0.60;;;;;;;30.13;31.59;101440.78;4890368;29;20047;-78
2021/08/28 13:11:27;;;;;;;0.22;0.22;;;;;;;33.01;32.08;101432.84;4923900;29;20043;-75
2021/08/28 13:13:57;;;;;;;0.93;0.65;;;;;;;35.13;27.99;101438.75;4921344;29;20062;-75
2021/08/28 13:16:24;;;;;;;0.85;0.45;;;;;;;35.70;25.42;101436.03;4906787;29;20151;-76
2021/08/28 13:19:15;;;;;;;0.95;0.65;;;;;;;35.23;24.73;101439.91;4918929;29;20040;-75
2021/08/28 13:21:45;;;;;;;1.23;0.73;;;;;;;34.19;24.36;101438.03;4900235;29;20052;-75
2021/08/28 13:24:16;;;;;;;0.60;0.50;;;;;;;33.21;24.94;101433.38;4903133;29;20056;-74
2021/08/28 13:27:05;;;;;;;0.77;0.65;;;;;;;32.41;25.14;101437.69;4923534;29;20059;-78
2021/08/28 13:29:42;;;;;;;0.70;0.70;;;;;;;31.94;26.39;101430.78;4907348;29;20046;-77
2021/08/28 13:32:10;;;;;;;0.55;0.55;;;;;;;32.31;26.41;101427.91;4907606;29;20028;-75
2021/08/28 13:34:49;;;;;;;0.88;0.63;;;;;;;32.48;26.11;101420.75;4904718;29;20057;-74
2021/08/28 13:37:17;;;;;;;0.77;0.43;;;;;;;32.44;25.70;101402.94;4916243;29;20036;-74
2021/08/28 13:39:46;;;;;;;4.18;0.90;;;;;;;32.48;26.04;101420.75;4889162;29;20043;-74
2021/08/28 14:09:45;;;;;;;1.27;0.73;;;;;;;35.14;20.77;101394.06;4895852;29;20086;-73
2021/08/28 15:27:02;;;;;;;0.40;0.40;;;;;;;27.80;29.52;101368.50;5079015;23;20087;-72
2021/08/28 15:29:28;;;;;;;0.55;0.50;;;;;;;27.67;29.77;101369.75;4917649;29;20044;-73
2021/08/28 15:31:54;;;;;;;1.33;0.82;;;;;;;27.51;30.26;101366.91;4917083;29;20040;-75
2021/08/28 15:34:19;;;;;;;0.85;0.85;;;;;;;27.47;30.90;101363.22;4917453;29;20043;-73
2021/08/28 15:36:45;;;;;;;1.63;1.52;;;;;;;27.49;31.31;101360.84;4916096;29;20024;-73
2021/08/28 15:39:11;;;;;;;4.10;1.20;;;;;;;27.58;31.34;101367.09;4878644;29;20029;-72
2021/08/28 15:41:39;;;;;;;0.82;0.65;;;;;;;27.79;31.08;101360.44;4912456;29;20110;-73
2021/08/28 15:44:04;;;;;;;0.77;0.68;;;;;;;28.24;31.20;101358.34;4912513;29;20035;-72
2021/08/28 15:46:30;;;;;;;0.35;0.32;;;;;;;28.92;31.17;101364.75;4904012;29;20032;-73
2021/08/28 15:48:55;;;;;;;0.75;0.73;;;;;;;29.61;30.44;101356.47;4900518;29;20028;-73
2021/08/28 15:51:21;;;;;;;0.60;0.50;;;;;;;30.38;29.17;101354.56;4894094;29;20043;-72
2021/08/28 15:53:48;;;;;;;0.40;0.40;;;;;;;30.91;28.90;101358.53;4899853;29;20387;-73
2021/08/28 15:56:14;;;;;;;3.83;0.60;;;;;;;31.18;27.80;101356.47;4919853;29;20044;-72
2021/08/28 15:58:41;;;;;;;1.00;0.55;;;;;;;31.14;27.04;101362.06;4917707;29;20035;-73
2021/08/28 16:01:06;;;;;;;0.60;0.52;;;;;;;31.00;27.56;101364.72;4923346;29;20414;-73
2021/08/28 16:03:31;;;;;;;0.93;0.93;;;;;;;30.85;27.32;101355.22;4917410;29;20036;-73
2021/08/28 16:05:59;;;;;;;0.65;0.65;;;;;;;30.55;27.63;101352.41;4918695;29;20038;-72
2021/08/28 16:08:25;;;;;;;1.23;0.98;;;;;;;30.15;27.96;101348.97;4900846;29;20029;-72
2021/08/28 16:10:54;;;;;;;0.60;0.60;;;;;;;29.87;28.25;101347.28;4906316;29;20028;-73
2021/08/28 16:13:19;;;;;;;0.45;0.45;;;;;;;29.92;28.37;101351.81;4881971;29;20034;-71
2021/08/28 16:15:50;;;;;;;0.57;0.57;;;;;;;29.95;27.80;101353.91;4882223;29;20029;-72
2021/08/28 16:18:20;;;;;;;0.80;0.80;;;;;;;29.68;28.20;101344.53;4907323;29;20048;-73
2021/08/28 16:20:50;;;;;;;0.70;0.70;;;;;;;29.47;28.67;101347.75;4901866;29;20041;-74
2021/08/28 16:23:21;;;;;;;0.63;0.60;;;;;;;29.55;29.05;101353.16;4885135;29;20044;-74
2021/08/28 16:25:50;;;;;;;0.43;0.43;;;;;;;29.98;28.89;101353.13;4920372;28;20056;-74
2021/08/28 16:28:32;;;;;;;0.40;0.40;;;;;;;30.91;29.43;101352.88;4903154;29;20039;-75
2021/08/28 16:31:06;;;;;;;0.32;0.32;;;;;;;32.19;28.25;101358.28;4898091;29;20487;-73
2021/08/28 16:33:36;;;;;;;0.90;0.65;;;;;;;32.60;26.12;101350.88;4902237;29;20036;-73
2021/08/28 16:36:03;;;;;;;0.95;0.82;;;;;;;32.05;25.00;101352.50;4885908;29;20053;-74
2021/08/28 16:38:43;;;;;;;0.73;0.70;;;;;;;31.20;25.44;101353.28;4891457;29;20028;-75
2021/08/28 16:41:11;;;;;;;0.93;0.73;;;;;;;30.45;26.16;101359.53;4850025;29;20543;-74
2021/08/28 16:43:40;;;;;;;1.23;1.20;;;;;;;29.81;26.58;101362.06;4859631;29;20036;-76
2021/08/28 16:46:06;;;;;;;1.42;1.33;;;;;;;29.23;27.38;101360.97;4907101;29;20072;-77
2021/08/28 16:48:32;;;;;;;1.20;1.20;;;;;;;28.73;27.83;101344.66;4901876;29;20040;-73